Terminal Aerodrome Forecast
Issued by NWS

Home | Current Version | Previous Version | Text Only | Print | Product List | Glossary On
Versions: 1 2 3 4 5 6 7 8 9 10 11 12 13 14 15
000
FTUS46 KOTX 202338
TAFMWH
TAF
KMWH 202338Z 2100/2124 23006KT P6SM VCSH SCT040 BKN070
     FM210200 21005KT P6SM SCT060 SCT100
     FM210900 24004KT P6SM BKN120
     FM211200 28005KT P6SM BKN060 OVC120
     FM212000 35005KT P6SM VCSH SCT050 BKN100=

USA.gov is the U.S. government's official web portal to all federal, state and local government web resources and services.